createdAt,value
2018-09-12T00:01:40.420Z,16.10
2018-09-12T00:04:51.818Z,16.10
2018-09-12T00:08:03.079Z,16.00
2018-09-12T00:11:15.068Z,16.00
2018-09-12T00:14:45.843Z,15.80
2018-09-12T00:17:57.838Z,15.80
2018-09-12T00:21:08.997Z,15.90
2018-09-12T00:24:20.874Z,16.00
2018-09-12T00:27:31.891Z,16.00
2018-09-12T00:30:43.179Z,16.00
2018-09-12T00:33:54.343Z,15.90
2018-09-12T00:37:05.752Z,15.80
2018-09-12T00:40:17.067Z,15.70
2018-09-12T00:43:28.146Z,15.70
2018-09-12T00:46:39.366Z,15.60
2018-09-12T00:49:50.438Z,15.50
2018-09-12T00:53:01.681Z,15.50
2018-09-12T00:56:12.895Z,15.30
2018-09-12T00:59:24.098Z,15.30
2018-09-12T01:02:35.641Z,15.30
2018-09-12T01:05:47.250Z,15.20
2018-09-12T01:08:58.870Z,15.20
2018-09-12T01:12:10.055Z,15.10
2018-09-12T01:15:21.717Z,15.10
2018-09-12T01:18:32.995Z,15.10
2018-09-12T01:21:44.302Z,15.00
2018-09-12T01:24:55.347Z,14.90
2018-09-12T01:28:07.029Z,14.80
2018-09-12T01:31:18.956Z,14.80
2018-09-12T01:34:31.219Z,14.70
2018-09-12T01:37:42.794Z,14.60
2018-09-12T01:40:54.124Z,14.60
2018-09-12T01:44:06.022Z,14.50
2018-09-12T01:47:17.463Z,14.60
2018-09-12T01:50:28.730Z,14.50
2018-09-12T01:53:39.942Z,14.50
2018-09-12T01:56:51.280Z,14.40
2018-09-12T02:00:02.818Z,14.40
2018-09-12T02:03:14.098Z,14.50
2018-09-12T02:06:26.700Z,14.60
2018-09-12T02:09:38.285Z,14.30
2018-09-12T02:12:49.452Z,14.40
2018-09-12T02:16:00.860Z,14.40
2018-09-12T02:19:12.757Z,14.30
2018-09-12T02:22:24.159Z,14.30
2018-09-12T02:25:35.784Z,14.10
2018-09-12T02:28:46.883Z,14.00
2018-09-12T02:31:57.897Z,14.00
2018-09-12T02:35:09.413Z,13.90
2018-09-12T02:38:21.075Z,14.10
2018-09-12T02:41:32.126Z,14.00
2018-09-12T02:44:43.477Z,13.90
2018-09-12T02:47:54.534Z,13.80
2018-09-12T02:51:06.451Z,13.80
2018-09-12T02:54:18.372Z,13.80
2018-09-12T02:57:29.476Z,13.80
2018-09-12T03:00:40.837Z,13.80
2018-09-12T03:03:52.171Z,13.80
2018-09-12T03:07:03.120Z,13.80
2018-09-12T03:10:14.594Z,13.80
2018-09-12T03:13:25.761Z,13.70
2018-09-12T03:16:39.031Z,13.70
2018-09-12T03:19:50.417Z,13.60
2018-09-12T03:23:02.186Z,13.70
2018-09-12T03:26:13.993Z,13.70
2018-09-12T03:29:25.131Z,13.60
2018-09-12T03:32:37.098Z,13.60
2018-09-12T03:35:49.325Z,13.60
2018-09-12T03:39:00.986Z,13.60
2018-09-12T03:42:12.486Z,13.50
2018-09-12T03:45:24.093Z,13.50
2018-09-12T03:48:36.115Z,13.40
2018-09-12T03:51:47.391Z,13.30
2018-09-12T03:54:58.503Z,13.30
2018-09-12T03:58:09.761Z,13.30
2018-09-12T04:01:20.971Z,13.30
2018-09-12T04:04:32.288Z,13.40
2018-09-12T04:07:44.157Z,13.50
2018-09-12T04:10:55.499Z,13.60
2018-09-12T04:14:06.852Z,13.60
2018-09-12T04:17:18.199Z,13.60
2018-09-12T04:20:30.095Z,13.60
2018-09-12T04:23:41.154Z,13.60
2018-09-12T04:26:52.363Z,13.70
2018-09-12T04:30:03.953Z,13.70
2018-09-12T04:33:15.000Z,13.70
2018-09-12T04:36:25.954Z,13.70
2018-09-12T04:39:37.443Z,13.70
2018-09-12T04:42:49.032Z,13.60
2018-09-12T04:46:01.223Z,13.70
2018-09-12T04:49:12.504Z,13.80
2018-09-12T04:52:23.918Z,13.70
2018-09-12T04:55:35.082Z,13.80
2018-09-12T04:58:46.463Z,13.80
2018-09-12T05:01:57.445Z,13.80
2018-09-12T05:05:08.748Z,13.70
2018-09-12T05:08:19.976Z,13.70
2018-09-12T05:11:31.898Z,13.60
2018-09-12T05:14:49.704Z,13.40
2018-09-12T05:18:01.810Z,13.40
2018-09-12T05:21:13.009Z,13.50
2018-09-12T05:24:24.857Z,13.60
2018-09-12T05:27:35.914Z,13.70
2018-09-12T05:30:47.218Z,13.80
2018-09-12T05:33:58.908Z,13.90
2018-09-12T05:37:10.416Z,14.00
2018-09-12T05:40:21.780Z,14.10
2018-09-12T05:43:33.394Z,14.30
2018-09-12T05:46:45.379Z,14.40
2018-09-12T05:49:56.487Z,14.50
2018-09-12T05:53:08.381Z,14.60
2018-09-12T05:56:19.728Z,14.70
2018-09-12T05:59:30.754Z,14.80
2018-09-12T06:02:42.686Z,15.00
2018-09-12T06:05:53.642Z,15.00
2018-09-12T06:09:08.495Z,15.20
2018-09-12T06:12:19.453Z,15.30
2018-09-12T06:15:30.724Z,15.60
2018-09-12T06:18:42.240Z,15.80
2018-09-12T06:21:53.972Z,15.90
2018-09-12T06:25:05.987Z,16.20
2018-09-12T06:28:16.951Z,16.30
2018-09-12T06:31:28.110Z,16.50
2018-09-12T06:34:39.234Z,16.80
2018-09-12T06:37:50.513Z,17.00
2018-09-12T06:41:02.676Z,17.10
2018-09-12T06:44:14.588Z,17.20
2018-09-12T06:47:25.675Z,17.50
2018-09-12T06:50:36.984Z,17.60
2018-09-12T06:53:48.330Z,17.80
2018-09-12T06:57:00.300Z,17.90
2018-09-12T07:00:12.535Z,18.10
2018-09-12T07:03:24.843Z,18.20
2018-09-12T07:06:36.152Z,18.30
2018-09-12T07:09:47.508Z,18.40
2018-09-12T07:12:58.778Z,18.50
2018-09-12T07:16:10.260Z,18.70
2018-09-12T07:19:22.534Z,18.90
2018-09-12T07:22:34.015Z,19.10
2018-09-12T07:25:45.183Z,19.30
2018-09-12T07:28:56.465Z,19.40
2018-09-12T07:32:07.703Z,19.70
2018-09-12T07:35:19.623Z,19.90
2018-09-12T07:38:30.956Z,20.00
2018-09-12T07:41:42.329Z,20.30
2018-09-12T07:44:53.789Z,20.40
2018-09-12T07:48:05.117Z,20.70
2018-09-12T07:51:17.329Z,20.90
2018-09-12T07:54:28.776Z,21.00
2018-09-12T07:57:40.264Z,21.20
2018-09-12T08:00:51.800Z,21.30
2018-09-12T08:04:03.398Z,21.40
2018-09-12T08:07:14.907Z,21.60
2018-09-12T08:10:26.365Z,21.90
2018-09-12T08:13:37.680Z,22.00
2018-09-12T08:16:50.661Z,22.20
2018-09-12T08:20:02.268Z,22.50
2018-09-12T08:23:13.268Z,22.60
2018-09-12T08:26:24.439Z,22.60
2018-09-12T08:29:35.296Z,22.80
2018-09-12T08:32:46.512Z,22.90
2018-09-12T08:35:58.121Z,23.00
2018-09-12T08:39:10.632Z,23.10
2018-09-12T08:42:22.393Z,23.30
2018-09-12T08:45:33.227Z,23.30
2018-09-12T08:48:45.040Z,23.70
2018-09-12T08:51:56.072Z,23.80
2018-09-12T08:55:07.821Z,23.70
2018-09-12T08:58:18.747Z,23.80
2018-09-12T09:01:29.700Z,23.90
2018-09-12T09:04:41.350Z,24.00
2018-09-12T09:07:52.539Z,23.90
2018-09-12T09:11:05.292Z,24.00
2018-09-12T09:14:16.520Z,24.30
2018-09-12T09:17:27.950Z,24.30
2018-09-12T09:20:39.313Z,24.60
2018-09-12T09:23:50.057Z,24.70
2018-09-12T09:27:01.123Z,24.70
2018-09-12T09:30:12.794Z,24.80
2018-09-12T09:33:24.084Z,24.90
2018-09-12T09:36:34.923Z,25.00
2018-09-12T09:39:45.790Z,25.00
2018-09-12T09:42:56.882Z,25.00
2018-09-12T09:46:08.756Z,25.10
2018-09-12T09:49:19.538Z,25.20
2018-09-12T09:52:30.838Z,25.20
2018-09-12T09:55:42.187Z,25.20
2018-09-12T09:58:53.825Z,25.30
2018-09-12T10:02:10.192Z,25.40
2018-09-12T10:05:25.914Z,25.40
2018-09-12T10:08:42.100Z,25.60
2018-09-12T10:11:53.670Z,25.60
2018-09-12T10:15:05.954Z,25.70
2018-09-12T10:18:16.788Z,25.80
2018-09-12T10:21:28.542Z,25.80
2018-09-12T10:24:39.469Z,26.00
2018-09-12T10:27:50.565Z,26.20
2018-09-12T10:31:01.579Z,26.20
2018-09-12T10:34:13.206Z,26.20
2018-09-12T10:37:24.237Z,26.10
2018-09-12T10:40:34.984Z,26.20
2018-09-12T10:43:46.169Z,26.00
2018-09-12T10:46:57.193Z,26.20
2018-09-12T10:50:09.036Z,26.30
2018-09-12T10:53:19.786Z,26.50
2018-09-12T10:56:30.679Z,26.60
2018-09-12T10:59:42.016Z,26.80
2018-09-12T11:02:53.023Z,26.90
2018-09-12T11:06:04.084Z,27.10
2018-09-12T11:09:15.677Z,27.10
2018-09-12T11:12:26.871Z,27.40
2018-09-12T11:15:38.880Z,27.30
2018-09-12T11:18:50.398Z,27.30
2018-09-12T11:22:01.753Z,27.40
2018-09-12T11:25:12.514Z,27.30
2018-09-12T11:28:23.552Z,27.50
2018-09-12T11:31:34.497Z,27.50
2018-09-12T11:34:45.845Z,27.70
2018-09-12T11:37:57.161Z,27.40
2018-09-12T11:41:08.614Z,27.60
2018-09-12T11:44:20.305Z,27.70
2018-09-12T11:47:31.648Z,27.70
2018-09-12T11:50:42.792Z,27.70
2018-09-12T11:53:54.267Z,27.80
2018-09-12T11:57:05.666Z,27.70
2018-09-12T12:00:16.680Z,27.90
2018-09-12T12:03:28.232Z,27.90
2018-09-12T12:06:40.343Z,28.10
2018-09-12T12:09:51.569Z,27.80
2018-09-12T12:13:02.538Z,28.20
2018-09-12T12:16:13.805Z,28.30
2018-09-12T12:19:24.934Z,28.40
2018-09-12T12:22:36.572Z,28.40
2018-09-12T12:25:47.922Z,28.30
2018-09-12T12:28:58.907Z,28.70
2018-09-12T12:32:10.170Z,28.50
2018-09-12T12:35:22.036Z,28.60
2018-09-12T12:38:33.201Z,28.60
2018-09-12T12:41:44.071Z,28.70
2018-09-12T12:44:55.166Z,28.50
2018-09-12T12:48:06.437Z,28.70
2018-09-12T12:51:17.557Z,28.70
2018-09-12T12:54:28.703Z,28.80
2018-09-12T12:57:39.790Z,28.70
2018-09-12T13:00:50.723Z,28.80
2018-09-12T13:04:01.863Z,28.70
2018-09-12T13:07:13.014Z,28.80
2018-09-12T13:10:24.304Z,28.70
2018-09-12T13:13:35.196Z,28.70
2018-09-12T13:16:46.196Z,28.40
2018-09-12T13:19:57.494Z,28.70
2018-09-12T13:23:08.929Z,28.90
2018-09-12T13:26:20.216Z,28.70
2018-09-12T13:29:31.734Z,28.90
2018-09-12T13:32:42.676Z,28.90
2018-09-12T13:35:53.841Z,28.90
2018-09-12T13:39:11.423Z,29.00
2018-09-12T13:42:23.093Z,29.10
2018-09-12T13:45:34.578Z,29.20
2018-09-12T13:48:45.916Z,29.20
2018-09-12T13:51:57.025Z,29.30
2018-09-12T13:55:08.036Z,29.00
2018-09-12T13:58:18.826Z,29.10
2018-09-12T14:01:29.972Z,29.10
2018-09-12T14:04:41.575Z,29.20
2018-09-12T14:07:53.157Z,29.30
2018-09-12T14:11:04.556Z,29.40
2018-09-12T14:14:15.323Z,29.30
2018-09-12T14:17:26.610Z,29.20
2018-09-12T14:20:37.817Z,29.00
2018-09-12T14:23:49.169Z,29.10
2018-09-12T14:27:00.368Z,28.90
2018-09-12T14:30:11.412Z,29.00
2018-09-12T14:33:22.412Z,29.00
2018-09-12T14:36:33.178Z,28.70
2018-09-12T14:39:44.911Z,28.80
2018-09-12T14:42:56.255Z,28.50
2018-09-12T14:46:08.007Z,28.70
2018-09-12T14:49:18.774Z,28.80
2018-09-12T14:52:30.305Z,28.70
2018-09-12T14:55:41.636Z,28.90
2018-09-12T14:58:52.697Z,29.00
2018-09-12T15:02:04.171Z,28.90
2018-09-12T15:05:14.942Z,28.90
2018-09-12T15:08:26.466Z,28.90
2018-09-12T15:11:37.747Z,28.80
2018-09-12T15:14:49.491Z,28.90
2018-09-12T15:18:00.529Z,28.80
2018-09-12T15:21:12.166Z,28.90
2018-09-12T15:24:23.796Z,28.70
2018-09-12T15:27:35.113Z,28.70
2018-09-12T15:30:46.512Z,28.80
2018-09-12T15:33:57.341Z,28.80
2018-09-12T15:37:08.667Z,28.70
2018-09-12T15:40:19.792Z,28.80
2018-09-12T15:43:31.066Z,28.60
2018-09-12T15:46:42.018Z,28.50
2018-09-12T15:49:53.239Z,28.30
2018-09-12T15:53:03.977Z,28.20
2018-09-12T15:56:15.078Z,28.10
2018-09-12T15:59:25.868Z,28.10
2018-09-12T16:02:36.969Z,28.10
2018-09-12T16:05:48.252Z,28.00
2018-09-12T16:08:59.853Z,27.90
2018-09-12T16:12:10.851Z,27.90
2018-09-12T16:15:21.697Z,27.70
2018-09-12T16:18:32.887Z,27.60
2018-09-12T16:21:44.117Z,27.60
2018-09-12T16:24:55.963Z,27.50
2018-09-12T16:28:07.679Z,27.50
2018-09-12T16:31:19.133Z,27.40
2018-09-12T16:34:30.462Z,27.40
2018-09-12T16:37:41.803Z,27.40
2018-09-12T16:40:52.669Z,27.30
2018-09-12T16:44:04.498Z,27.20
2018-09-12T16:47:16.274Z,27.10
2018-09-12T16:50:27.283Z,27.00
2018-09-12T16:53:38.602Z,26.90
2018-09-12T16:56:49.941Z,26.70
2018-09-12T17:00:02.654Z,26.70
2018-09-12T17:03:13.979Z,26.60
2018-09-12T17:06:25.371Z,26.50
2018-09-12T17:09:36.463Z,26.40
2018-09-12T17:12:47.758Z,26.30
2018-09-12T17:15:59.250Z,26.20
2018-09-12T17:19:10.494Z,26.10
2018-09-12T17:22:21.819Z,26.00
2018-09-12T17:25:33.284Z,25.90
2018-09-12T17:28:44.649Z,25.80
2018-09-12T17:31:55.950Z,25.60
2018-09-12T17:35:08.077Z,25.50
2018-09-12T17:38:19.500Z,25.40
2018-09-12T17:41:30.447Z,25.30
2018-09-12T17:44:42.214Z,25.10
2018-09-12T17:47:53.659Z,25.00
2018-09-12T17:51:04.512Z,24.80
2018-09-12T17:54:16.137Z,24.50
2018-09-12T17:57:27.298Z,24.40
2018-09-12T18:00:38.610Z,24.20
2018-09-12T18:03:51.320Z,24.20
2018-09-12T18:07:02.939Z,23.90
2018-09-12T18:10:14.008Z,23.80
2018-09-12T18:13:25.057Z,23.70
2018-09-12T18:16:36.062Z,23.50
2018-09-12T18:19:47.344Z,23.30
2018-09-12T18:22:58.617Z,23.00
2018-09-12T18:26:10.004Z,23.00
2018-09-12T18:29:22.127Z,23.00
2018-09-12T18:32:33.061Z,23.00
2018-09-12T18:35:44.225Z,22.80
2018-09-12T18:38:54.964Z,22.70
2018-09-12T18:42:06.121Z,22.40
2018-09-12T18:45:16.911Z,22.40
2018-09-12T18:48:28.387Z,22.20
2018-09-12T18:51:39.714Z,22.10
2018-09-12T18:54:50.624Z,22.00
2018-09-12T18:58:02.088Z,21.80
2018-09-12T19:01:12.941Z,21.80
2018-09-12T19:04:24.570Z,21.70
2018-09-12T19:07:36.356Z,21.50
2018-09-12T19:10:47.490Z,21.40
2018-09-12T19:13:58.585Z,21.30
2018-09-12T19:17:10.529Z,20.90
2018-09-12T19:20:22.411Z,21.10
2018-09-12T19:23:33.549Z,21.30
2018-09-12T19:26:45.420Z,21.30
2018-09-12T19:29:57.195Z,21.20
2018-09-12T19:33:08.375Z,21.00
2018-09-12T19:36:20.079Z,20.80
2018-09-12T19:39:32.603Z,20.70
2018-09-12T19:42:44.558Z,20.70
2018-09-12T19:45:55.644Z,20.50
2018-09-12T19:49:07.642Z,20.50
2018-09-12T19:52:18.800Z,20.30
2018-09-12T19:55:30.005Z,20.30
2018-09-12T19:58:41.682Z,20.20
2018-09-12T20:01:53.308Z,20.30
2018-09-12T20:05:05.405Z,20.30
2018-09-12T20:08:16.460Z,20.30
2018-09-12T20:11:28.206Z,20.20
2018-09-12T20:14:40.089Z,20.10
2018-09-12T20:17:51.951Z,19.80
2018-09-12T20:21:04.052Z,19.70
2018-09-12T20:24:15.423Z,19.90
2018-09-12T20:27:27.328Z,19.80
2018-09-12T20:30:38.725Z,19.80
2018-09-12T20:33:50.636Z,19.80
2018-09-12T20:37:02.009Z,19.80
2018-09-12T20:40:13.180Z,19.50
2018-09-12T20:43:25.138Z,19.40
2018-09-12T20:46:36.432Z,19.40
2018-09-12T20:49:47.500Z,19.20
2018-09-12T20:52:59.105Z,19.00
2018-09-12T20:56:10.579Z,18.90
2018-09-12T20:59:21.979Z,19.00
2018-09-12T21:02:33.281Z,18.90
2018-09-12T21:05:45.181Z,19.00
2018-09-12T21:08:56.807Z,18.90
2018-09-12T21:12:08.199Z,18.90
2018-09-12T21:15:20.026Z,18.90
2018-09-12T21:18:31.161Z,18.60
2018-09-12T21:21:42.369Z,18.70
2018-09-12T21:24:54.242Z,18.60
2018-09-12T21:28:05.497Z,18.80
2018-09-12T21:31:17.287Z,18.60
2018-09-12T21:34:28.410Z,18.60
2018-09-12T21:37:39.431Z,18.70
2018-09-12T21:40:50.780Z,18.80
2018-09-12T21:44:02.764Z,18.80
2018-09-12T21:47:14.090Z,18.70
2018-09-12T21:50:25.237Z,18.80
2018-09-12T21:53:36.462Z,18.80
2018-09-12T21:56:49.321Z,18.80
2018-09-12T22:00:00.852Z,18.80
2018-09-12T22:03:12.261Z,18.70
2018-09-12T22:06:24.185Z,18.40
2018-09-12T22:09:35.804Z,18.20
2018-09-12T22:12:47.748Z,18.10
2018-09-12T22:15:59.100Z,18.10
2018-09-12T22:19:11.073Z,18.20
2018-09-12T22:22:22.451Z,17.90
2018-09-12T22:25:34.071Z,18.00
2018-09-12T22:28:46.265Z,18.10
2018-09-12T22:31:58.176Z,18.00
2018-09-12T22:35:09.921Z,17.90
2018-09-12T22:38:21.292Z,17.80
2018-09-12T22:41:32.353Z,17.70
2018-09-12T22:44:43.930Z,17.80
2018-09-12T22:47:55.823Z,17.90
2018-09-12T22:51:07.282Z,17.80
2018-09-12T22:54:18.539Z,17.90
2018-09-12T22:57:30.139Z,17.90
2018-09-12T23:00:41.920Z,17.60
2018-09-12T23:03:53.204Z,17.40
2018-09-12T23:07:04.685Z,17.30
2018-09-12T23:10:16.097Z,17.10
2018-09-12T23:13:27.505Z,17.10
2018-09-12T23:16:39.625Z,17.00
2018-09-12T23:19:51.566Z,17.00
2018-09-12T23:23:02.888Z,17.00
2018-09-12T23:26:14.507Z,16.90
2018-09-12T23:29:26.264Z,16.70
2018-09-12T23:32:37.250Z,16.80
2018-09-12T23:35:48.659Z,17.00
2018-09-12T23:38:59.628Z,16.90
2018-09-12T23:42:11.496Z,17.10
2018-09-12T23:45:23.233Z,17.10
2018-09-12T23:48:34.453Z,16.90
2018-09-12T23:51:45.648Z,16.90
2018-09-12T23:54:57.202Z,17.00
2018-09-12T23:58:08.746Z,16.80
